sensor_id;sensor_type;location;lat;lon;timestamp;P1;durP1;ratioP1;P2;durP2;ratioP2
9522;SDS011;63165;43.016;25.784;2022-12-07T00:02:37;67.43;;;14.95;;
9522;SDS011;63165;43.016;25.784;2022-12-07T00:05:04;61.92;;;13.50;;
9522;SDS011;63165;43.016;25.784;2022-12-07T00:07:31;65.40;;;16.27;;
9522;SDS011;63165;43.016;25.784;2022-12-07T00:09:59;70.65;;;17.13;;
9522;SDS011;63165;43.016;25.784;2022-12-07T00:12:41;119.70;;;31.23;;
9522;SDS011;63165;43.016;25.784;2022-12-07T00:15:08;93.10;;;17.98;;
9522;SDS011;63165;43.016;25.784;2022-12-07T00:17:41;77.53;;;15.02;;
9522;SDS011;63165;43.016;25.784;2022-12-07T00:20:31;63.78;;;15.13;;
9522;SDS011;63165;43.016;25.784;2022-12-07T00:22:58;78.03;;;14.85;;
9522;SDS011;63165;43.016;25.784;2022-12-07T00:25:26;77.38;;;15.02;;
9522;SDS011;63165;43.016;25.784;2022-12-07T00:27:54;86.50;;;15.77;;
9522;SDS011;63165;43.016;25.784;2022-12-07T00:30:22;65.35;;;14.77;;
9522;SDS011;63165;43.016;25.784;2022-12-07T00:32:49;59.10;;;14.05;;
9522;SDS011;63165;43.016;25.784;2022-12-07T00:35:16;47.15;;;13.07;;
9522;SDS011;63165;43.016;25.784;2022-12-07T00:37:57;60.53;;;13.93;;
9522;SDS011;63165;43.016;25.784;2022-12-07T00:40:24;72.32;;;16.58;;
9522;SDS011;63165;43.016;25.784;2022-12-07T00:43:14;77.32;;;16.92;;
9522;SDS011;63165;43.016;25.784;2022-12-07T00:45:41;83.65;;;17.52;;
9522;SDS011;63165;43.016;25.784;2022-12-07T00:48:08;68.32;;;16.42;;
9522;SDS011;63165;43.016;25.784;2022-12-07T00:50:36;73.15;;;17.48;;
9522;SDS011;63165;43.016;25.784;2022-12-07T00:53:03;79.25;;;19.35;;
9522;SDS011;63165;43.016;25.784;2022-12-07T00:55:47;72.38;;;18.63;;
9522;SDS011;63165;43.016;25.784;2022-12-07T00:58:24;75.05;;;18.80;;
9522;SDS011;63165;43.016;25.784;2022-12-07T01:00:52;75.18;;;18.58;;
9522;SDS011;63165;43.016;25.784;2022-12-07T01:03:19;82.45;;;19.98;;
9522;SDS011;63165;43.016;25.784;2022-12-07T01:06:06;88.60;;;19.75;;
9522;SDS011;63165;43.016;25.784;2022-12-07T01:08:51;86.85;;;19.92;;
9522;SDS011;63165;43.016;25.784;2022-12-07T01:11:21;76.88;;;19.05;;
9522;SDS011;63165;43.016;25.784;2022-12-07T01:14:06;83.57;;;21.80;;
9522;SDS011;63165;43.016;25.784;2022-12-07T01:16:35;108.68;;;29.42;;
9522;SDS011;63165;43.016;25.784;2022-12-07T01:19:19;100.32;;;26.90;;
9522;SDS011;63165;43.016;25.784;2022-12-07T01:21:46;85.57;;;24.95;;
9522;SDS011;63165;43.016;25.784;2022-12-07T01:24:22;90.78;;;23.60;;
9522;SDS011;63165;43.016;25.784;2022-12-07T01:27:09;83.70;;;24.30;;
9522;SDS011;63165;43.016;25.784;2022-12-07T01:29:38;104.60;;;27.10;;
9522;SDS011;63165;43.016;25.784;2022-12-07T01:32:06;114.20;;;31.10;;
9522;SDS011;63165;43.016;25.784;2022-12-07T01:34:35;116.75;;;31.95;;
9522;SDS011;63165;43.016;25.784;2022-12-07T01:37:04;113.88;;;31.45;;
9522;SDS011;63165;43.016;25.784;2022-12-07T01:39:32;76.63;;;20.20;;
9522;SDS011;63165;43.016;25.784;2022-12-07T01:41:59;66.78;;;20.40;;
9522;SDS011;63165;43.016;25.784;2022-12-07T01:44:26;123.07;;;29.40;;
9522;SDS011;63165;43.016;25.784;2022-12-07T01:46:59;89.15;;;22.00;;
9522;SDS011;63165;43.016;25.784;2022-12-07T01:49:28;109.25;;;26.02;;
9522;SDS011;63165;43.016;25.784;2022-12-07T01:52:01;86.05;;;21.15;;
9522;SDS011;63165;43.016;25.784;2022-12-07T01:54:36;351.52;;;82.05;;
9522;SDS011;63165;43.016;25.784;2022-12-07T01:57:06;130.50;;;32.40;;
9522;SDS011;63165;43.016;25.784;2022-12-07T01:59:36;142.45;;;34.40;;
9522;SDS011;63165;43.016;25.784;2022-12-07T02:02:07;168.30;;;42.72;;
9522;SDS011;63165;43.016;25.784;2022-12-07T02:04:42;167.18;;;43.92;;
9522;SDS011;63165;43.016;25.784;2022-12-07T02:07:10;113.10;;;28.90;;
9522;SDS011;63165;43.016;25.784;2022-12-07T02:09:37;204.15;;;57.40;;
9522;SDS011;63165;43.016;25.784;2022-12-07T02:12:05;136.90;;;32.13;;
9522;SDS011;63165;43.016;25.784;2022-12-07T02:14:32;96.45;;;25.48;;
9522;SDS011;63165;43.016;25.784;2022-12-07T02:17:05;118.10;;;29.45;;
9522;SDS011;63165;43.016;25.784;2022-12-07T02:25:53;116.10;;;29.13;;
9522;SDS011;63165;43.016;25.784;2022-12-07T02:28:51;113.32;;;23.08;;
9522;SDS011;63165;43.016;25.784;2022-12-07T02:31:30;183.65;;;49.33;;
9522;SDS011;63165;43.016;25.784;2022-12-07T02:34:12;100.63;;;28.00;;
9522;SDS011;63165;43.016;25.784;2022-12-07T02:37:00;146.02;;;34.40;;
9522;SDS011;63165;43.016;25.784;2022-12-07T02:39:33;120.78;;;31.05;;
9522;SDS011;63165;43.016;25.784;2022-12-07T02:42:09;150.80;;;32.67;;
9522;SDS011;63165;43.016;25.784;2022-12-07T02:45:07;134.48;;;28.30;;
9522;SDS011;63165;43.016;25.784;2022-12-07T02:47:37;122.50;;;23.42;;
9522;SDS011;63165;43.016;25.784;2022-12-07T02:50:11;103.43;;;23.25;;
9522;SDS011;63165;43.016;25.784;2022-12-07T02:52:40;117.53;;;23.30;;
9522;SDS011;63165;43.016;25.784;2022-12-07T02:55:07;111.82;;;23.10;;
9522;SDS011;63165;43.016;25.784;2022-12-07T02:57:40;120.57;;;25.15;;
9522;SDS011;63165;43.016;25.784;2022-12-07T03:00:26;119.38;;;23.48;;
9522;SDS011;63165;43.016;25.784;2022-12-07T03:02:54;108.85;;;23.48;;
9522;SDS011;63165;43.016;25.784;2022-12-07T03:05:29;124.32;;;25.50;;
9522;SDS011;63165;43.016;25.784;2022-12-07T03:08:12;128.80;;;24.58;;
9522;SDS011;63165;43.016;25.784;2022-12-07T03:10:48;128.57;;;29.88;;
9522;SDS011;63165;43.016;25.784;2022-12-07T03:13:28;132.70;;;32.80;;
9522;SDS011;63165;43.016;25.784;2022-12-07T03:16:07;117.80;;;26.52;;
9522;SDS011;63165;43.016;25.784;2022-12-07T03:18:40;122.97;;;24.90;;
9522;SDS011;63165;43.016;25.784;2022-12-07T03:21:13;114.13;;;24.08;;
9522;SDS011;63165;43.016;25.784;2022-12-07T03:23:45;96.97;;;21.57;;
9522;SDS011;63165;43.016;25.784;2022-12-07T03:26:17;117.57;;;22.67;;
9522;SDS011;63165;43.016;25.784;2022-12-07T03:28:48;119.88;;;22.95;;
9522;SDS011;63165;43.016;25.784;2022-12-07T03:31:21;105.90;;;22.27;;
9522;SDS011;63165;43.016;25.784;2022-12-07T03:33:53;118.63;;;25.08;;
9522;SDS011;63165;43.016;25.784;2022-12-07T03:36:30;112.57;;;24.38;;
9522;SDS011;63165;43.016;25.784;2022-12-07T03:39:07;108.50;;;23.33;;
9522;SDS011;63165;43.016;25.784;2022-12-07T03:41:44;99.25;;;22.42;;
9522;SDS011;63165;43.016;25.784;2022-12-07T03:44:12;130.35;;;28.63;;
9522;SDS011;63165;43.016;25.784;2022-12-07T03:46:44;129.43;;;26.45;;
9522;SDS011;63165;43.016;25.784;2022-12-07T03:49:23;129.00;;;24.98;;
9522;SDS011;63165;43.016;25.784;2022-12-07T03:52:00;130.65;;;23.63;;
9522;SDS011;63165;43.016;25.784;2022-12-07T03:54:36;116.72;;;24.50;;
9522;SDS011;63165;43.016;25.784;2022-12-07T03:57:09;147.55;;;25.50;;
9522;SDS011;63165;43.016;25.784;2022-12-07T03:59:39;131.00;;;27.08;;
9522;SDS011;63165;43.016;25.784;2022-12-07T04:02:10;125.05;;;23.92;;
9522;SDS011;63165;43.016;25.784;2022-12-07T04:04:39;201.70;;;30.73;;
9522;SDS011;63165;43.016;25.784;2022-12-07T04:07:08;191.05;;;29.88;;
9522;SDS011;63165;43.016;25.784;2022-12-07T04:09:35;151.00;;;25.65;;
9522;SDS011;63165;43.016;25.784;2022-12-07T04:12:05;148.05;;;29.45;;
9522;SDS011;63165;43.016;25.784;2022-12-07T04:14:36;143.95;;;28.00;;
9522;SDS011;63165;43.016;25.784;2022-12-07T04:19:48;147.65;;;29.70;;
9522;SDS011;63165;43.016;25.784;2022-12-07T04:22:16;149.23;;;31.65;;
9522;SDS011;63165;43.016;25.784;2022-12-07T04:24:43;143.23;;;29.85;;
9522;SDS011;63165;43.016;25.784;2022-12-07T04:27:10;162.27;;;27.58;;
9522;SDS011;63165;43.016;25.784;2022-12-07T04:29:38;130.95;;;27.58;;
9522;SDS011;63165;43.016;25.784;2022-12-07T04:32:05;175.25;;;30.88;;
9522;SDS011;63165;43.016;25.784;2022-12-07T04:34:50;149.65;;;27.45;;
9522;SDS011;63165;43.016;25.784;2022-12-07T04:37:18;145.02;;;31.20;;
9522;SDS011;63165;43.016;25.784;2022-12-07T04:39:45;140.43;;;30.10;;
9522;SDS011;63165;43.016;25.784;2022-12-07T04:42:12;140.00;;;29.80;;
9522;SDS011;63165;43.016;25.784;2022-12-07T04:44:39;163.38;;;33.00;;
9522;SDS011;63165;43.016;25.784;2022-12-07T04:47:07;176.15;;;36.28;;
9522;SDS011;63165;43.016;25.784;2022-12-07T04:49:34;159.38;;;31.85;;
9522;SDS011;63165;43.016;25.784;2022-12-07T04:52:03;127.28;;;29.63;;
9522;SDS011;63165;43.016;25.784;2022-12-07T04:54:31;172.57;;;32.45;;
9522;SDS011;63165;43.016;25.784;2022-12-07T04:56:58;162.80;;;32.33;;
9522;SDS011;63165;43.016;25.784;2022-12-07T04:59:26;171.82;;;29.83;;
9522;SDS011;63165;43.016;25.784;2022-12-07T05:01:53;250.50;;;33.72;;
9522;SDS011;63165;43.016;25.784;2022-12-07T05:04:21;207.32;;;31.73;;
9522;SDS011;63165;43.016;25.784;2022-12-07T05:06:48;118.68;;;26.15;;
9522;SDS011;63165;43.016;25.784;2022-12-07T05:09:18;173.70;;;34.08;;
9522;SDS011;63165;43.016;25.784;2022-12-07T05:11:45;191.30;;;37.20;;
9522;SDS011;63165;43.016;25.784;2022-12-07T05:14:13;185.23;;;35.03;;
9522;SDS011;63165;43.016;25.784;2022-12-07T05:16:42;210.48;;;37.72;;
9522;SDS011;63165;43.016;25.784;2022-12-07T05:19:10;140.82;;;28.63;;
9522;SDS011;63165;43.016;25.784;2022-12-07T05:21:38;132.50;;;27.45;;
9522;SDS011;63165;43.016;25.784;2022-12-07T05:24:06;138.32;;;27.05;;
9522;SDS011;63165;43.016;25.784;2022-12-07T05:26:37;172.30;;;28.52;;
9522;SDS011;63165;43.016;25.784;2022-12-07T05:29:19;142.95;;;26.40;;
9522;SDS011;63165;43.016;25.784;2022-12-07T05:31:49;157.18;;;32.53;;
9522;SDS011;63165;43.016;25.784;2022-12-07T05:34:17;157.40;;;30.52;;
9522;SDS011;63165;43.016;25.784;2022-12-07T05:36:44;137.38;;;29.23;;
9522;SDS011;63165;43.016;25.784;2022-12-07T05:39:11;170.52;;;34.10;;
9522;SDS011;63165;43.016;25.784;2022-12-07T05:41:40;146.82;;;32.35;;
9522;SDS011;63165;43.016;25.784;2022-12-07T05:44:25;179.35;;;38.38;;
9522;SDS011;63165;43.016;25.784;2022-12-07T05:46:52;154.38;;;38.28;;
9522;SDS011;63165;43.016;25.784;2022-12-07T05:49:19;118.25;;;30.30;;
9522;SDS011;63165;43.016;25.784;2022-12-07T05:51:47;102.72;;;25.13;;
9522;SDS011;63165;43.016;25.784;2022-12-07T05:54:14;77.10;;;20.77;;
9522;SDS011;63165;43.016;25.784;2022-12-07T05:56:43;66.53;;;16.48;;
9522;SDS011;63165;43.016;25.784;2022-12-07T05:59:10;71.57;;;18.05;;
9522;SDS011;63165;43.016;25.784;2022-12-07T06:01:52;63.25;;;16.10;;
9522;SDS011;63165;43.016;25.784;2022-12-07T06:04:36;63.53;;;15.60;;
9522;SDS011;63165;43.016;25.784;2022-12-07T06:07:04;57.95;;;15.73;;
9522;SDS011;63165;43.016;25.784;2022-12-07T06:09:32;66.68;;;16.38;;
9522;SDS011;63165;43.016;25.784;2022-12-07T06:12:03;65.68;;;18.25;;
9522;SDS011;63165;43.016;25.784;2022-12-07T06:14:48;71.95;;;20.10;;
9522;SDS011;63165;43.016;25.784;2022-12-07T06:17:16;61.35;;;16.35;;
9522;SDS011;63165;43.016;25.784;2022-12-07T06:19:46;84.55;;;24.63;;
9522;SDS011;63165;43.016;25.784;2022-12-07T06:22:14;69.93;;;20.25;;
9522;SDS011;63165;43.016;25.784;2022-12-07T06:24:42;79.10;;;20.35;;
9522;SDS011;63165;43.016;25.784;2022-12-07T06:27:11;62.85;;;18.40;;
9522;SDS011;63165;43.016;25.784;2022-12-07T06:29:38;64.88;;;18.40;;
9522;SDS011;63165;43.016;25.784;2022-12-07T06:32:19;53.53;;;15.23;;
9522;SDS011;63165;43.016;25.784;2022-12-07T06:34:46;55.10;;;16.10;;
9522;SDS011;63165;43.016;25.784;2022-12-07T06:37:13;80.93;;;21.45;;
9522;SDS011;63165;43.016;25.784;2022-12-07T06:39:41;77.90;;;20.40;;
9522;SDS011;63165;43.016;25.784;2022-12-07T06:45:11;72.85;;;17.27;;
9522;SDS011;63165;43.016;25.784;2022-12-07T06:51:31;58.90;;;15.15;;
9522;SDS011;63165;43.016;25.784;2022-12-07T06:54:00;59.83;;;15.93;;
9522;SDS011;63165;43.016;25.784;2022-12-07T06:56:27;65.13;;;16.52;;
9522;SDS011;63165;43.016;25.784;2022-12-07T06:58:57;72.18;;;19.55;;
9522;SDS011;63165;43.016;25.784;2022-12-07T07:01:26;69.68;;;16.90;;
9522;SDS011;63165;43.016;25.784;2022-12-07T07:04:13;69.45;;;17.52;;
9522;SDS011;63165;43.016;25.784;2022-12-07T07:06:44;60.13;;;16.02;;
9522;SDS011;63165;43.016;25.784;2022-12-07T07:09:49;64.55;;;17.50;;
9522;SDS011;63165;43.016;25.784;2022-12-07T07:12:36;69.57;;;15.70;;
9522;SDS011;63165;43.016;25.784;2022-12-07T07:15:10;78.43;;;18.65;;
9522;SDS011;63165;43.016;25.784;2022-12-07T07:17:37;64.43;;;16.90;;
9522;SDS011;63165;43.016;25.784;2022-12-07T07:20:05;74.22;;;20.63;;
9522;SDS011;63165;43.016;25.784;2022-12-07T07:22:33;78.95;;;22.15;;
9522;SDS011;63165;43.016;25.784;2022-12-07T07:25:02;96.10;;;29.10;;
9522;SDS011;63165;43.016;25.784;2022-12-07T07:27:31;78.00;;;24.15;;
9522;SDS011;63165;43.016;25.784;2022-12-07T07:29:58;83.82;;;26.02;;
9522;SDS011;63165;43.016;25.784;2022-12-07T07:32:26;76.97;;;18.13;;
9522;SDS011;63165;43.016;25.784;2022-12-07T07:34:54;58.25;;;16.13;;
9522;SDS011;63165;43.016;25.784;2022-12-07T07:37:21;55.08;;;15.90;;
9522;SDS011;63165;43.016;25.784;2022-12-07T07:39:48;109.53;;;28.88;;
9522;SDS011;63165;43.016;25.784;2022-12-07T07:42:15;114.47;;;28.38;;
9522;SDS011;63165;43.016;25.784;2022-12-07T07:44:43;161.73;;;45.92;;
9522;SDS011;63165;43.016;25.784;2022-12-07T07:47:10;195.27;;;48.78;;
9522;SDS011;63165;43.016;25.784;2022-12-07T07:49:40;98.22;;;28.35;;
9522;SDS011;63165;43.016;25.784;2022-12-07T07:52:08;71.43;;;20.98;;
9522;SDS011;63165;43.016;25.784;2022-12-07T07:54:35;73.53;;;20.70;;
9522;SDS011;63165;43.016;25.784;2022-12-07T07:57:02;79.22;;;22.17;;
9522;SDS011;63165;43.016;25.784;2022-12-07T07:59:30;91.82;;;23.80;;
9522;SDS011;63165;43.016;25.784;2022-12-07T08:01:57;61.03;;;15.73;;
9522;SDS011;63165;43.016;25.784;2022-12-07T08:04:24;63.55;;;15.35;;
9522;SDS011;63165;43.016;25.784;2022-12-07T08:06:53;54.53;;;14.65;;
9522;SDS011;63165;43.016;25.784;2022-12-07T08:09:20;63.35;;;15.57;;
9522;SDS011;63165;43.016;25.784;2022-12-07T08:12:04;63.55;;;16.38;;
9522;SDS011;63165;43.016;25.784;2022-12-07T08:14:32;92.00;;;29.02;;
9522;SDS011;63165;43.016;25.784;2022-12-07T08:17:00;75.63;;;22.48;;
9522;SDS011;63165;43.016;25.784;2022-12-07T08:19:28;53.63;;;15.73;;
9522;SDS011;63165;43.016;25.784;2022-12-07T08:21:56;57.70;;;17.33;;
9522;SDS011;63165;43.016;25.784;2022-12-07T08:24:26;76.45;;;22.70;;
9522;SDS011;63165;43.016;25.784;2022-12-07T08:26:53;47.45;;;14.70;;
9522;SDS011;63165;43.016;25.784;2022-12-07T08:29:20;56.72;;;14.68;;
9522;SDS011;63165;43.016;25.784;2022-12-07T08:31:48;57.25;;;15.45;;
9522;SDS011;63165;43.016;25.784;2022-12-07T08:34:17;62.05;;;16.05;;
9522;SDS011;63165;43.016;25.784;2022-12-07T08:36:44;52.65;;;16.20;;
9522;SDS011;63165;43.016;25.784;2022-12-07T08:39:15;179.48;;;51.05;;
9522;SDS011;63165;43.016;25.784;2022-12-07T08:41:42;51.03;;;14.93;;
9522;SDS011;63165;43.016;25.784;2022-12-07T08:44:24;52.28;;;13.48;;
9522;SDS011;63165;43.016;25.784;2022-12-07T08:47:06;49.47;;;14.00;;
9522;SDS011;63165;43.016;25.784;2022-12-07T08:49:36;45.88;;;15.10;;
9522;SDS011;63165;43.016;25.784;2022-12-07T08:52:11;50.15;;;15.15;;
9522;SDS011;63165;43.016;25.784;2022-12-07T08:57:43;44.30;;;13.45;;
9522;SDS011;63165;43.016;25.784;2022-12-07T09:00:11;48.05;;;13.80;;
9522;SDS011;63165;43.016;25.784;2022-12-07T09:02:39;47.92;;;12.85;;
9522;SDS011;63165;43.016;25.784;2022-12-07T09:05:08;54.40;;;14.60;;
9522;SDS011;63165;43.016;25.784;2022-12-07T09:07:35;42.47;;;13.00;;
9522;SDS011;63165;43.016;25.784;2022-12-07T09:10:04;45.00;;;14.75;;
9522;SDS011;63165;43.016;25.784;2022-12-07T09:12:34;49.35;;;13.82;;
9522;SDS011;63165;43.016;25.784;2022-12-07T09:15:01;49.40;;;14.32;;
9522;SDS011;63165;43.016;25.784;2022-12-07T09:17:31;36.47;;;12.35;;
9522;SDS011;63165;43.016;25.784;2022-12-07T09:19:59;40.50;;;12.13;;
9522;SDS011;63165;43.016;25.784;2022-12-07T09:22:28;36.38;;;11.23;;
9522;SDS011;63165;43.016;25.784;2022-12-07T09:24:56;42.28;;;11.75;;
9522;SDS011;63165;43.016;25.784;2022-12-07T09:27:23;49.88;;;13.57;;
9522;SDS011;63165;43.016;25.784;2022-12-07T09:29:51;46.90;;;12.80;;
9522;SDS011;63165;43.016;25.784;2022-12-07T09:32:19;42.25;;;13.07;;
9522;SDS011;63165;43.016;25.784;2022-12-07T09:34:46;42.22;;;12.40;;
9522;SDS011;63165;43.016;25.784;2022-12-07T09:37:13;36.10;;;11.27;;
9522;SDS011;63165;43.016;25.784;2022-12-07T09:39:40;39.88;;;11.18;;
9522;SDS011;63165;43.016;25.784;2022-12-07T09:42:08;46.28;;;14.35;;
9522;SDS011;63165;43.016;25.784;2022-12-07T09:44:36;38.10;;;10.88;;
9522;SDS011;63165;43.016;25.784;2022-12-07T09:47:05;37.53;;;11.75;;
9522;SDS011;63165;43.016;25.784;2022-12-07T09:49:33;110.18;;;30.33;;
9522;SDS011;63165;43.016;25.784;2022-12-07T09:52:02;60.55;;;15.65;;
9522;SDS011;63165;43.016;25.784;2022-12-07T09:54:45;42.15;;;12.32;;
9522;SDS011;63165;43.016;25.784;2022-12-07T09:57:13;40.08;;;12.02;;
9522;SDS011;63165;43.016;25.784;2022-12-07T09:59:41;35.10;;;11.25;;
9522;SDS011;63165;43.016;25.784;2022-12-07T10:02:21;31.13;;;10.50;;
9522;SDS011;63165;43.016;25.784;2022-12-07T10:04:59;37.17;;;11.23;;
9522;SDS011;63165;43.016;25.784;2022-12-07T10:07:40;30.98;;;9.40;;
9522;SDS011;63165;43.016;25.784;2022-12-07T10:10:12;46.50;;;13.45;;
9522;SDS011;63165;43.016;25.784;2022-12-07T10:12:57;65.30;;;21.33;;
9522;SDS011;63165;43.016;25.784;2022-12-07T10:15:46;33.85;;;11.10;;
9522;SDS011;63165;43.016;25.784;2022-12-07T10:18:26;35.70;;;11.05;;
9522;SDS011;63165;43.016;25.784;2022-12-07T10:21:03;63.42;;;18.70;;
9522;SDS011;63165;43.016;25.784;2022-12-07T10:23:36;38.13;;;11.48;;
9522;SDS011;63165;43.016;25.784;2022-12-07T10:26:25;94.65;;;29.15;;
9522;SDS011;63165;43.016;25.784;2022-12-07T10:28:55;131.73;;;39.35;;
9522;SDS011;63165;43.016;25.784;2022-12-07T10:31:25;39.95;;;12.82;;
9522;SDS011;63165;43.016;25.784;2022-12-07T10:33:54;78.43;;;22.55;;
9522;SDS011;63165;43.016;25.784;2022-12-07T10:36:37;57.25;;;18.80;;
9522;SDS011;63165;43.016;25.784;2022-12-07T10:39:10;44.20;;;12.63;;
9522;SDS011;63165;43.016;25.784;2022-12-07T10:41:52;34.28;;;12.73;;
9522;SDS011;63165;43.016;25.784;2022-12-07T10:44:21;32.17;;;10.57;;
9522;SDS011;63165;43.016;25.784;2022-12-07T10:52:52;37.58;;;10.65;;
9522;SDS011;63165;43.016;25.784;2022-12-07T10:55:46;32.95;;;10.35;;
9522;SDS011;63165;43.016;25.784;2022-12-07T10:58:31;32.22;;;10.25;;
9522;SDS011;63165;43.016;25.784;2022-12-07T11:01:10;35.10;;;10.18;;
9522;SDS011;63165;43.016;25.784;2022-12-07T11:03:52;32.17;;;11.73;;
9522;SDS011;63165;43.016;25.784;2022-12-07T11:06:43;31.85;;;10.48;;
9522;SDS011;63165;43.016;25.784;2022-12-07T11:12:29;92.22;;;27.25;;
9522;SDS011;63165;43.016;25.784;2022-12-07T11:15:09;33.22;;;10.85;;
9522;SDS011;63165;43.016;25.784;2022-12-07T11:17:45;40.05;;;11.90;;
9522;SDS011;63165;43.016;25.784;2022-12-07T11:20:23;38.88;;;13.80;;
9522;SDS011;63165;43.016;25.784;2022-12-07T11:23:03;41.78;;;13.45;;
9522;SDS011;63165;43.016;25.784;2022-12-07T11:25:41;33.05;;;11.00;;
9522;SDS011;63165;43.016;25.784;2022-12-07T11:28:22;36.95;;;13.60;;
9522;SDS011;63165;43.016;25.784;2022-12-07T11:31:03;31.70;;;10.77;;
9522;SDS011;63165;43.016;25.784;2022-12-07T11:33:41;31.67;;;10.50;;
9522;SDS011;63165;43.016;25.784;2022-12-07T11:36:16;36.22;;;12.30;;
9522;SDS011;63165;43.016;25.784;2022-12-07T11:38:57;35.92;;;10.90;;
9522;SDS011;63165;43.016;25.784;2022-12-07T11:41:28;39.42;;;11.00;;
9522;SDS011;63165;43.016;25.784;2022-12-07T11:44:06;33.65;;;10.23;;
9522;SDS011;63165;43.016;25.784;2022-12-07T11:46:42;30.33;;;10.10;;
9522;SDS011;63165;43.016;25.784;2022-12-07T11:49:16;35.85;;;10.95;;
9522;SDS011;63165;43.016;25.784;2022-12-07T11:51:51;38.38;;;12.07;;
9522;SDS011;63165;43.016;25.784;2022-12-07T11:54:25;36.97;;;11.95;;
9522;SDS011;63165;43.016;25.784;2022-12-07T11:56:56;31.92;;;11.30;;
9522;SDS011;63165;43.016;25.784;2022-12-07T11:59:32;62.00;;;19.05;;
9522;SDS011;63165;43.016;25.784;2022-12-07T12:02:10;32.40;;;10.80;;
9522;SDS011;63165;43.016;25.784;2022-12-07T12:04:47;33.60;;;11.00;;
9522;SDS011;63165;43.016;25.784;2022-12-07T12:07:21;32.72;;;10.63;;
9522;SDS011;63165;43.016;25.784;2022-12-07T12:09:51;36.28;;;11.82;;
9522;SDS011;63165;43.016;25.784;2022-12-07T12:12:35;37.80;;;11.80;;
9522;SDS011;63165;43.016;25.784;2022-12-07T12:15:26;37.13;;;12.40;;
9522;SDS011;63165;43.016;25.784;2022-12-07T12:18:09;34.77;;;12.93;;
9522;SDS011;63165;43.016;25.784;2022-12-07T12:20:51;30.10;;;9.95;;
9522;SDS011;63165;43.016;25.784;2022-12-07T12:23:24;34.65;;;10.57;;
9522;SDS011;63165;43.016;25.784;2022-12-07T12:26:01;30.23;;;9.52;;
9522;SDS011;63165;43.016;25.784;2022-12-07T12:28:32;30.83;;;10.80;;
9522;SDS011;63165;43.016;25.784;2022-12-07T12:31:09;25.83;;;9.32;;
9522;SDS011;63165;43.016;25.784;2022-12-07T12:33:42;27.23;;;10.35;;
9522;SDS011;63165;43.016;25.784;2022-12-07T12:36:18;26.75;;;8.70;;
9522;SDS011;63165;43.016;25.784;2022-12-07T12:38:49;28.80;;;9.95;;
9522;SDS011;63165;43.016;25.784;2022-12-07T12:50:26;26.13;;;8.90;;
9522;SDS011;63165;43.016;25.784;2022-12-07T12:53:00;29.38;;;10.02;;
9522;SDS011;63165;43.016;25.784;2022-12-07T12:58:36;35.70;;;11.70;;
9522;SDS011;63165;43.016;25.784;2022-12-07T13:04:25;36.83;;;12.02;;
9522;SDS011;63165;43.016;25.784;2022-12-07T13:06:55;35.55;;;12.55;;
9522;SDS011;63165;43.016;25.784;2022-12-07T13:09:24;30.20;;;11.07;;
9522;SDS011;63165;43.016;25.784;2022-12-07T13:12:01;47.28;;;13.13;;
9522;SDS011;63165;43.016;25.784;2022-12-07T13:14:42;33.80;;;11.77;;
9522;SDS011;63165;43.016;25.784;2022-12-07T13:23:25;39.20;;;12.93;;
9522;SDS011;63165;43.016;25.784;2022-12-07T13:25:58;37.67;;;12.07;;
9522;SDS011;63165;43.016;25.784;2022-12-07T13:28:32;62.25;;;20.00;;
9522;SDS011;63165;43.016;25.784;2022-12-07T13:34:00;35.03;;;12.38;;
9522;SDS011;63165;43.016;25.784;2022-12-07T13:36:31;113.97;;;33.10;;
9522;SDS011;63165;43.016;25.784;2022-12-07T13:39:10;106.45;;;33.92;;
9522;SDS011;63165;43.016;25.784;2022-12-07T13:41:44;121.97;;;36.42;;
9522;SDS011;63165;43.016;25.784;2022-12-07T13:44:16;73.30;;;21.25;;
9522;SDS011;63165;43.016;25.784;2022-12-07T13:46:46;55.25;;;17.85;;
9522;SDS011;63165;43.016;25.784;2022-12-07T13:49:20;57.30;;;16.13;;
9522;SDS011;63165;43.016;25.784;2022-12-07T13:51:51;63.22;;;18.98;;
9522;SDS011;63165;43.016;25.784;2022-12-07T13:54:20;45.17;;;15.60;;
9522;SDS011;63165;43.016;25.784;2022-12-07T13:56:48;55.42;;;17.13;;
9522;SDS011;63165;43.016;25.784;2022-12-07T13:59:18;49.95;;;14.60;;
9522;SDS011;63165;43.016;25.784;2022-12-07T14:01:48;34.28;;;11.25;;
9522;SDS011;63165;43.016;25.784;2022-12-07T14:04:17;41.55;;;11.50;;
9522;SDS011;63165;43.016;25.784;2022-12-07T14:06:50;38.15;;;11.85;;
9522;SDS011;63165;43.016;25.784;2022-12-07T14:09:18;25.35;;;8.40;;
9522;SDS011;63165;43.016;25.784;2022-12-07T14:11:47;49.40;;;14.15;;
9522;SDS011;63165;43.016;25.784;2022-12-07T14:14:17;68.60;;;20.50;;
9522;SDS011;63165;43.016;25.784;2022-12-07T14:16:55;50.75;;;17.80;;
9522;SDS011;63165;43.016;25.784;2022-12-07T14:19:43;66.03;;;21.60;;
9522;SDS011;63165;43.016;25.784;2022-12-07T14:22:33;56.65;;;16.52;;
9522;SDS011;63165;43.016;25.784;2022-12-07T14:25:22;44.35;;;12.73;;
9522;SDS011;63165;43.016;25.784;2022-12-07T14:27:53;44.35;;;12.38;;
9522;SDS011;63165;43.016;25.784;2022-12-07T14:30:23;30.05;;;10.90;;
9522;SDS011;63165;43.016;25.784;2022-12-07T14:32:57;73.00;;;19.67;;
9522;SDS011;63165;43.016;25.784;2022-12-07T14:35:26;33.20;;;11.05;;
9522;SDS011;63165;43.016;25.784;2022-12-07T14:37:57;29.85;;;9.50;;
9522;SDS011;63165;43.016;25.784;2022-12-07T14:40:26;31.33;;;10.73;;
9522;SDS011;63165;43.016;25.784;2022-12-07T14:42:55;53.53;;;18.05;;
9522;SDS011;63165;43.016;25.784;2022-12-07T14:45:26;28.95;;;11.25;;
9522;SDS011;63165;43.016;25.784;2022-12-07T14:47:53;38.03;;;13.38;;
9522;SDS011;63165;43.016;25.784;2022-12-07T14:50:21;42.25;;;12.05;;
9522;SDS011;63165;43.016;25.784;2022-12-07T14:52:49;36.10;;;11.00;;
9522;SDS011;63165;43.016;25.784;2022-12-07T14:55:29;37.85;;;12.02;;
9522;SDS011;63165;43.016;25.784;2022-12-07T14:57:57;42.60;;;11.27;;
9522;SDS011;63165;43.016;25.784;2022-12-07T15:00:26;40.17;;;12.40;;
9522;SDS011;63165;43.016;25.784;2022-12-07T15:02:55;51.13;;;14.88;;
9522;SDS011;63165;43.016;25.784;2022-12-07T15:05:24;90.65;;;27.30;;
9522;SDS011;63165;43.016;25.784;2022-12-07T15:07:51;70.10;;;21.45;;
9522;SDS011;63165;43.016;25.784;2022-12-07T15:10:19;40.67;;;12.13;;
9522;SDS011;63165;43.016;25.784;2022-12-07T15:15:51;72.20;;;25.30;;
9522;SDS011;63165;43.016;25.784;2022-12-07T15:18:35;53.45;;;17.63;;
9522;SDS011;63165;43.016;25.784;2022-12-07T15:21:05;38.90;;;14.93;;
9522;SDS011;63165;43.016;25.784;2022-12-07T15:23:32;54.72;;;16.50;;
9522;SDS011;63165;43.016;25.784;2022-12-07T15:26:00;97.13;;;30.83;;
9522;SDS011;63165;43.016;25.784;2022-12-07T15:31:12;56.47;;;17.60;;
9522;SDS011;63165;43.016;25.784;2022-12-07T15:33:47;73.70;;;24.60;;
9522;SDS011;63165;43.016;25.784;2022-12-07T15:36:18;85.72;;;26.50;;
9522;SDS011;63165;43.016;25.784;2022-12-07T15:38:47;59.78;;;18.08;;
9522;SDS011;63165;43.016;25.784;2022-12-07T15:41:14;51.60;;;15.98;;
9522;SDS011;63165;43.016;25.784;2022-12-07T15:43:42;56.25;;;16.13;;
9522;SDS011;63165;43.016;25.784;2022-12-07T15:49:14;56.10;;;17.40;;
9522;SDS011;63165;43.016;25.784;2022-12-07T15:51:43;96.07;;;29.05;;